createdAt,value
2023-01-22T00:01:44.590Z,52.64
2023-01-22T00:04:12.460Z,52.48
2023-01-22T00:06:40.306Z,52.72
2023-01-22T00:09:09.667Z,52.59
2023-01-22T00:11:37.570Z,52.48
2023-01-22T00:14:05.860Z,52.67
2023-01-22T00:16:33.791Z,52.67
2023-01-22T00:19:01.689Z,52.49
2023-01-22T00:21:29.568Z,52.73
2023-01-22T00:23:57.453Z,52.64
2023-01-22T00:26:26.772Z,52.49
2023-01-22T00:28:54.642Z,52.55
2023-01-22T00:31:23.675Z,52.69
2023-01-22T00:33:51.721Z,52.71
2023-01-22T00:36:20.435Z,52.69
2023-01-22T00:38:48.273Z,52.64
2023-01-22T00:41:16.311Z,52.56
2023-01-22T00:43:45.574Z,52.58
2023-01-22T00:46:14.862Z,52.50
2023-01-22T00:48:42.853Z,52.54
2023-01-22T00:51:13.031Z,52.54
2023-01-22T00:53:41.465Z,52.39
2023-01-22T00:56:09.362Z,52.41
2023-01-22T00:58:37.225Z,52.29
2023-01-22T01:01:07.233Z,52.44
2023-01-22T01:03:36.737Z,52.36
2023-01-22T01:06:05.850Z,52.35
2023-01-22T01:08:34.551Z,52.37
2023-01-22T01:11:03.772Z,52.40
2023-01-22T01:13:33.067Z,52.31
2023-01-22T01:16:01.986Z,52.31
2023-01-22T01:18:31.718Z,52.33
2023-01-22T01:20:59.901Z,52.38
2023-01-22T01:23:28.307Z,52.23
2023-01-22T01:25:56.172Z,52.29
2023-01-22T01:28:24.931Z,52.19
2023-01-22T01:30:52.827Z,52.25
2023-01-22T01:33:20.815Z,52.16
2023-01-22T01:35:50.178Z,52.22
2023-01-22T01:38:18.077Z,52.34
2023-01-22T01:40:46.121Z,52.22
2023-01-22T01:43:17.449Z,52.53
2023-01-22T01:45:45.309Z,52.61
2023-01-22T01:48:17.821Z,52.57
2023-01-22T01:50:47.337Z,52.71
2023-01-22T01:53:16.670Z,52.61
2023-01-22T01:55:44.561Z,52.65
2023-01-22T01:58:18.447Z,52.62
2023-01-22T02:00:46.385Z,52.60
2023-01-22T02:03:14.347Z,52.59
2023-01-22T02:05:42.268Z,52.60
2023-01-22T02:08:10.184Z,52.42
2023-01-22T02:10:39.967Z,52.55
2023-01-22T02:13:09.910Z,52.64
2023-01-22T02:15:38.192Z,52.58
2023-01-22T02:18:06.103Z,52.59
2023-01-22T02:20:36.572Z,52.43
2023-01-22T02:23:04.452Z,52.44
2023-01-22T02:25:33.873Z,52.32
2023-01-22T02:28:01.795Z,52.39
2023-01-22T02:30:29.733Z,52.19
2023-01-22T02:32:57.667Z,52.32
2023-01-22T02:35:25.534Z,52.31
2023-01-22T02:37:54.834Z,52.26
2023-01-22T02:40:22.770Z,52.25
2023-01-22T02:42:50.599Z,52.39
2023-01-22T02:45:18.616Z,52.32
2023-01-22T02:47:46.465Z,52.35
2023-01-22T02:50:14.320Z,52.50
2023-01-22T02:52:42.226Z,52.45
2023-01-22T02:55:11.588Z,52.50
2023-01-22T02:57:39.451Z,52.60
2023-01-22T03:00:09.266Z,52.64
2023-01-22T03:02:37.141Z,52.36
2023-01-22T03:05:05.256Z,52.36
2023-01-22T03:07:42.186Z,52.47
2023-01-22T03:10:13.618Z,52.48
2023-01-22T03:12:59.025Z,52.45
2023-01-22T03:15:44.330Z,52.68
2023-01-22T03:18:29.920Z,52.45
2023-01-22T03:21:16.854Z,52.60
2023-01-22T03:23:45.569Z,52.60
2023-01-22T03:26:15.205Z,52.41
2023-01-22T03:28:43.158Z,52.38
2023-01-22T03:31:11.098Z,52.48
2023-01-22T03:33:39.036Z,52.57
2023-01-22T03:36:09.029Z,52.32
2023-01-22T03:38:36.957Z,52.46
2023-01-22T03:41:05.789Z,52.62
2023-01-22T03:43:35.361Z,52.49
2023-01-22T03:46:04.773Z,52.66
2023-01-22T03:48:32.831Z,52.68
2023-01-22T03:51:06.063Z,52.77
2023-01-22T03:53:34.052Z,52.85
2023-01-22T03:56:02.822Z,52.67
2023-01-22T03:58:30.812Z,52.75
2023-01-22T04:01:01.815Z,52.67
2023-01-22T04:03:30.097Z,52.77
2023-01-22T04:06:00.211Z,52.90
2023-01-22T04:08:29.038Z,52.56
2023-01-22T04:10:57.027Z,52.72
2023-01-22T04:13:25.040Z,52.64
2023-01-22T04:15:52.996Z,52.62
2023-01-22T04:18:22.271Z,52.54
2023-01-22T04:20:50.228Z,52.55
2023-01-22T04:23:18.207Z,52.44
2023-01-22T04:25:46.233Z,52.31
2023-01-22T04:28:14.755Z,52.32
2023-01-22T04:30:42.899Z,52.24
2023-01-22T04:33:10.837Z,52.32
2023-01-22T04:35:40.238Z,52.41
2023-01-22T04:38:08.490Z,52.35
2023-01-22T04:40:36.357Z,52.38
2023-01-22T04:43:04.297Z,52.60
2023-01-22T04:45:32.284Z,52.49
2023-01-22T04:48:00.689Z,52.48
2023-01-22T04:50:29.490Z,52.47
2023-01-22T04:52:58.831Z,52.24
2023-01-22T04:55:26.913Z,52.32
2023-01-22T04:57:55.303Z,52.34
2023-01-22T05:00:23.361Z,52.21
2023-01-22T05:02:51.288Z,52.17
2023-01-22T05:05:19.219Z,52.39
2023-01-22T05:07:47.076Z,52.22
2023-01-22T05:10:17.340Z,52.05
2023-01-22T05:12:45.450Z,52.03
2023-01-22T05:15:23.587Z,52.12
2023-01-22T05:17:52.231Z,52.31
2023-01-22T05:20:20.505Z,52.23
2023-01-22T05:22:48.581Z,52.06
2023-01-22T05:25:17.969Z,52.18
2023-01-22T05:27:45.818Z,52.13
2023-01-22T05:30:14.414Z,52.12
2023-01-22T05:32:42.426Z,52.14
2023-01-22T05:35:10.891Z,52.09
2023-01-22T05:37:38.771Z,51.93
2023-01-22T05:40:08.072Z,52.12
2023-01-22T05:42:37.292Z,52.06
2023-01-22T05:45:05.859Z,52.00
2023-01-22T05:47:33.760Z,52.02
2023-01-22T05:50:01.628Z,51.87
2023-01-22T05:52:29.474Z,51.87
2023-01-22T05:54:59.905Z,51.86
2023-01-22T05:57:29.743Z,51.88
2023-01-22T05:59:59.039Z,51.88
2023-01-22T06:02:26.958Z,51.76
2023-01-22T06:04:54.832Z,51.77
2023-01-22T06:07:22.711Z,51.58
2023-01-22T06:09:50.639Z,51.58
2023-01-22T06:12:18.541Z,51.46
2023-01-22T06:14:46.462Z,51.35
2023-01-22T06:17:15.749Z,51.47
2023-01-22T06:19:43.618Z,51.29
2023-01-22T06:22:11.698Z,51.41
2023-01-22T06:24:39.983Z,51.37
2023-01-22T06:27:07.856Z,51.34
2023-01-22T06:29:35.774Z,51.07
2023-01-22T06:32:03.688Z,51.01
2023-01-22T06:34:32.961Z,51.02
2023-01-22T06:37:00.862Z,51.01
2023-01-22T06:39:28.816Z,50.93
2023-01-22T06:41:56.742Z,50.90
2023-01-22T06:44:24.712Z,50.83
2023-01-22T06:46:52.613Z,50.86
2023-01-22T06:49:20.647Z,50.90
2023-01-22T06:51:49.905Z,50.63
2023-01-22T06:54:17.795Z,50.63
2023-01-22T06:56:45.651Z,50.63
2023-01-22T06:59:13.523Z,50.61
2023-01-22T07:01:42.233Z,50.49
2023-01-22T07:04:10.836Z,50.70
2023-01-22T07:06:38.940Z,50.54
2023-01-22T07:09:08.196Z,50.69
2023-01-22T07:11:36.058Z,50.60
2023-01-22T07:14:03.955Z,50.70
2023-01-22T07:16:32.027Z,50.45
2023-01-22T07:18:59.974Z,50.41
2023-01-22T07:21:28.222Z,50.55
2023-01-22T07:23:56.108Z,50.42
2023-01-22T07:26:25.348Z,50.43
2023-01-22T07:28:53.190Z,50.38
2023-01-22T07:31:21.134Z,50.28
2023-01-22T07:33:49.065Z,50.38
2023-01-22T07:36:16.946Z,50.23
2023-01-22T07:38:44.831Z,50.26
2023-01-22T07:41:25.154Z,50.22
2023-01-22T07:43:57.646Z,50.19
2023-01-22T07:46:25.591Z,49.97
2023-01-22T07:48:53.554Z,49.93
2023-01-22T07:51:21.548Z,49.83
2023-01-22T07:53:49.453Z,49.91
2023-01-22T07:56:19.073Z,49.70
2023-01-22T07:58:46.939Z,49.61
2023-01-22T08:01:17.093Z,49.72
2023-01-22T08:03:45.352Z,49.76
2023-01-22T08:06:14.363Z,49.63
2023-01-22T08:08:45.056Z,49.57
2023-01-22T08:11:12.889Z,49.52
2023-01-22T08:13:40.901Z,49.67
2023-01-22T08:16:09.834Z,49.45
2023-01-22T08:18:39.098Z,49.33
2023-01-22T08:21:07.262Z,49.24
2023-01-22T08:23:35.212Z,49.25
2023-01-22T08:26:04.023Z,49.27
2023-01-22T08:28:32.351Z,49.07
2023-01-22T08:31:00.427Z,49.06
2023-01-22T08:33:28.378Z,49.26
2023-01-22T08:35:57.648Z,49.14
2023-01-22T08:38:25.610Z,49.07
2023-01-22T08:40:53.626Z,49.07
2023-01-22T08:43:21.548Z,49.00
2023-01-22T08:45:49.739Z,48.83
2023-01-22T08:48:17.750Z,48.90
2023-01-22T08:50:45.651Z,49.08
2023-01-22T08:53:14.894Z,48.98
2023-01-22T08:55:42.750Z,48.84
2023-01-22T08:58:10.597Z,48.89
2023-01-22T09:00:38.502Z,49.03
2023-01-22T09:03:06.348Z,48.88
2023-01-22T09:05:34.214Z,48.83
2023-01-22T09:08:02.081Z,48.84
2023-01-22T09:10:31.380Z,48.88
2023-01-22T09:13:00.028Z,48.73
2023-01-22T09:15:28.010Z,48.61
2023-01-22T09:17:55.907Z,48.47
2023-01-22T09:20:23.954Z,48.41
2023-01-22T09:22:51.817Z,48.48
2023-01-22T09:25:20.508Z,48.35
2023-01-22T09:27:49.786Z,48.41
2023-01-22T09:30:18.219Z,48.28
2023-01-22T09:32:46.207Z,48.21
2023-01-22T09:35:16.400Z,48.23
2023-01-22T09:37:44.620Z,48.12
2023-01-22T09:40:17.135Z,48.04
2023-01-22T09:42:45.233Z,48.05
2023-01-22T09:45:15.085Z,47.85
2023-01-22T09:47:44.104Z,47.71
2023-01-22T09:50:16.257Z,47.82
2023-01-22T09:52:44.466Z,47.75
2023-01-22T09:55:13.797Z,47.65
2023-01-22T09:57:43.081Z,47.46
2023-01-22T10:00:17.333Z,47.54
2023-01-22T10:02:46.205Z,47.44
2023-01-22T10:05:19.235Z,47.31
2023-01-22T10:07:51.839Z,46.96
2023-01-22T10:10:21.167Z,46.99
2023-01-22T10:12:51.357Z,46.94
2023-01-22T10:15:21.796Z,46.65
2023-01-22T10:17:49.690Z,46.76
2023-01-22T10:20:18.957Z,46.50
2023-01-22T10:22:48.953Z,46.37
2023-01-22T10:25:17.411Z,46.10
2023-01-22T10:27:45.623Z,46.36
2023-01-22T10:30:21.538Z,46.19
2023-01-22T10:32:59.559Z,45.96
2023-01-22T10:35:27.893Z,45.95
2023-01-22T10:37:56.842Z,45.91
2023-01-22T10:40:26.568Z,45.93
2023-01-22T10:43:05.887Z,45.71
2023-01-22T10:45:35.134Z,45.49
2023-01-22T10:48:13.938Z,45.48
2023-01-22T10:50:42.241Z,45.41
2023-01-22T10:53:20.736Z,45.29
2023-01-22T10:55:55.664Z,45.42
2023-01-22T10:58:25.014Z,45.23
2023-01-22T11:01:02.715Z,45.43
2023-01-22T11:03:32.833Z,45.48
2023-01-22T11:06:02.225Z,45.52
2023-01-22T11:08:31.437Z,45.38
2023-01-22T11:11:00.931Z,45.62
2023-01-22T11:13:31.278Z,45.60
2023-01-22T11:16:02.900Z,45.81
2023-01-22T11:18:32.988Z,46.00
2023-01-22T11:21:01.749Z,46.08
2023-01-22T11:23:34.579Z,45.88
2023-01-22T11:26:04.851Z,46.00
2023-01-22T11:28:41.730Z,46.17
2023-01-22T11:31:40.894Z,46.11
2023-01-22T11:34:37.076Z,46.26
2023-01-22T11:37:09.167Z,46.30
2023-01-22T11:39:45.405Z,46.35
2023-01-22T11:42:20.744Z,46.39
2023-01-22T11:44:55.840Z,46.50
2023-01-22T11:47:40.847Z,46.63
2023-01-22T11:50:26.837Z,46.59
2023-01-22T11:52:58.587Z,46.82
2023-01-22T11:55:56.109Z,46.70
2023-01-22T11:58:32.782Z,46.78
2023-01-22T12:01:10.038Z,46.78
2023-01-22T12:03:59.920Z,46.83
2023-01-22T12:06:39.665Z,46.73
2023-01-22T12:09:09.896Z,46.62
2023-01-22T12:11:51.848Z,46.89
2023-01-22T12:14:30.217Z,47.11
2023-01-22T12:17:03.871Z,46.82
2023-01-22T12:19:55.826Z,46.73
2023-01-22T12:22:29.926Z,46.75
2023-01-22T12:25:00.308Z,46.75
2023-01-22T12:27:30.291Z,46.72
2023-01-22T12:30:01.920Z,46.67
2023-01-22T12:32:30.687Z,46.71
2023-01-22T12:35:01.772Z,46.62
2023-01-22T12:37:33.074Z,46.54
2023-01-22T12:40:11.462Z,46.65
2023-01-22T12:42:42.044Z,46.73
2023-01-22T12:45:19.028Z,46.58
2023-01-22T12:47:50.079Z,46.50
2023-01-22T12:50:21.144Z,46.48
2023-01-22T12:52:59.054Z,46.37
2023-01-22T12:55:32.320Z,46.51
2023-01-22T12:58:00.329Z,46.59
2023-01-22T13:00:34.546Z,46.65
2023-01-22T13:03:04.386Z,46.72
2023-01-22T13:05:42.663Z,46.43
2023-01-22T13:08:25.482Z,46.51
2023-01-22T13:10:55.033Z,46.60
2023-01-22T13:13:28.851Z,46.57
2023-01-22T13:15:58.669Z,46.56
2023-01-22T13:18:27.566Z,46.50
2023-01-22T13:21:02.803Z,46.32
2023-01-22T13:23:31.646Z,46.32
2023-01-22T13:25:59.733Z,46.29
2023-01-22T13:28:27.897Z,46.37
2023-01-22T13:31:00.508Z,46.38
2023-01-22T13:33:28.546Z,46.45
2023-01-22T13:35:57.937Z,46.33
2023-01-22T13:38:27.066Z,46.19
2023-01-22T13:40:56.715Z,46.09
2023-01-22T13:43:24.717Z,46.08
2023-01-22T13:45:53.176Z,46.24
2023-01-22T13:48:22.346Z,46.30
2023-01-22T13:50:54.065Z,46.29
2023-01-22T13:53:32.794Z,46.06
2023-01-22T13:56:01.250Z,46.16
2023-01-22T13:58:49.396Z,46.21
2023-01-22T14:01:28.222Z,46.24
2023-01-22T14:04:00.482Z,46.10
2023-01-22T14:06:28.582Z,46.11
2023-01-22T14:08:58.546Z,46.13
2023-01-22T14:11:26.581Z,46.20
2023-01-22T14:13:54.586Z,46.27
2023-01-22T14:16:22.754Z,46.23
2023-01-22T14:18:50.691Z,46.35
2023-01-22T14:21:18.593Z,46.26
2023-01-22T14:23:46.589Z,46.19
2023-01-22T14:26:15.890Z,46.01
2023-01-22T14:28:43.823Z,46.13
2023-01-22T14:31:11.839Z,45.93
2023-01-22T14:33:39.705Z,46.15
2023-01-22T14:36:08.503Z,46.19
2023-01-22T14:38:36.397Z,46.18
2023-01-22T14:41:04.805Z,46.15
2023-01-22T14:43:34.100Z,46.04
2023-01-22T14:46:02.004Z,46.04
2023-01-22T14:48:29.976Z,45.66
2023-01-22T14:50:57.954Z,45.83
2023-01-22T14:53:25.972Z,45.79
2023-01-22T14:55:53.837Z,45.69
2023-01-22T14:58:21.745Z,45.62
2023-01-22T15:00:51.093Z,45.71
2023-01-22T15:03:19.018Z,45.81
2023-01-22T15:05:46.973Z,45.92
2023-01-22T15:08:14.867Z,45.66
2023-01-22T15:10:42.816Z,45.65
2023-01-22T15:13:10.796Z,45.26
2023-01-22T15:15:38.743Z,45.20
2023-01-22T15:18:08.071Z,45.30
2023-01-22T15:20:36.038Z,44.96
2023-01-22T15:23:03.955Z,44.63
2023-01-22T15:25:33.025Z,44.58
2023-01-22T15:28:00.939Z,44.47
2023-01-22T15:30:28.870Z,44.25
2023-01-22T15:32:56.773Z,44.10
2023-01-22T15:35:26.080Z,44.11
2023-01-22T15:37:53.945Z,44.16
2023-01-22T15:40:22.182Z,44.10
2023-01-22T15:42:50.089Z,44.07
2023-01-22T15:45:18.064Z,43.98
2023-01-22T15:47:46.025Z,43.68
2023-01-22T15:50:20.227Z,43.69
2023-01-22T15:52:53.372Z,43.59
2023-01-22T15:55:21.309Z,43.79
2023-01-22T15:57:49.263Z,43.57
2023-01-22T16:00:17.893Z,43.58
2023-01-22T16:02:46.015Z,43.59
2023-01-22T16:05:14.012Z,43.58
2023-01-22T16:07:41.919Z,43.75
2023-01-22T16:10:12.410Z,43.75
2023-01-22T16:12:40.298Z,43.87
2023-01-22T16:15:09.214Z,43.89
2023-01-22T16:17:37.104Z,44.04
2023-01-22T16:20:06.410Z,44.23
2023-01-22T16:22:34.329Z,44.47
2023-01-22T16:25:02.233Z,44.66
2023-01-22T16:27:31.636Z,44.71
2023-01-22T16:29:59.829Z,44.98
2023-01-22T16:32:27.752Z,45.19
2023-01-22T16:34:55.621Z,45.39
2023-01-22T16:37:23.499Z,45.53
2023-01-22T16:39:51.399Z,45.57
2023-01-22T16:42:22.239Z,45.54
2023-01-22T16:44:51.649Z,45.69
2023-01-22T16:47:20.322Z,45.78
2023-01-22T16:49:48.896Z,45.82
2023-01-22T16:52:22.807Z,46.00
2023-01-22T16:54:51.066Z,45.85
2023-01-22T16:57:19.570Z,45.95
2023-01-22T16:59:47.498Z,45.99
2023-01-22T17:02:17.014Z,45.94
2023-01-22T17:04:45.324Z,46.12
2023-01-22T17:07:31.963Z,46.08
2023-01-22T17:10:01.319Z,46.10
2023-01-22T17:12:31.012Z,46.11
2023-01-22T17:14:58.924Z,45.96
2023-01-22T17:17:28.202Z,46.09
2023-01-22T17:19:56.166Z,45.92
2023-01-22T17:22:24.253Z,45.99
2023-01-22T17:24:52.690Z,45.99
2023-01-22T17:27:21.556Z,46.00
2023-01-22T17:29:49.457Z,46.12
2023-01-22T17:32:17.441Z,46.12
2023-01-22T17:34:46.957Z,46.10
2023-01-22T17:37:14.838Z,46.07
2023-01-22T17:39:43.504Z,46.03
2023-01-22T17:42:11.368Z,46.12
2023-01-22T17:44:40.896Z,46.24
2023-01-22T17:47:08.946Z,46.36
2023-01-22T17:49:36.928Z,46.30
2023-01-22T17:52:06.823Z,46.48
2023-01-22T17:54:34.797Z,46.53
2023-01-22T17:57:02.656Z,46.52
2023-01-22T17:59:30.573Z,46.54
2023-01-22T18:01:59.804Z,46.57
2023-01-22T18:04:27.686Z,46.54
2023-01-22T18:06:55.631Z,46.67
2023-01-22T18:09:25.051Z,46.76
2023-01-22T18:11:52.938Z,46.97
2023-01-22T18:14:22.927Z,47.13
2023-01-22T18:16:50.937Z,47.16
2023-01-22T18:19:19.090Z,47.16
2023-01-22T18:21:47.001Z,47.07
2023-01-22T18:24:15.024Z,47.19
2023-01-22T18:26:44.298Z,47.15
2023-01-22T18:29:12.326Z,46.99
2023-01-22T18:31:40.329Z,47.01
2023-01-22T18:34:08.726Z,47.09
2023-01-22T18:36:37.435Z,47.02
2023-01-22T18:39:06.462Z,47.24
2023-01-22T18:41:34.403Z,47.00
2023-01-22T18:44:03.692Z,47.29
2023-01-22T18:46:33.560Z,47.51
2023-01-22T18:49:02.387Z,47.34
2023-01-22T18:51:30.505Z,47.53
2023-01-22T18:53:59.328Z,47.64
2023-01-22T18:56:27.213Z,47.50
2023-01-22T18:58:55.317Z,47.48
2023-01-22T19:01:25.472Z,47.64
2023-01-22T19:03:54.431Z,47.77
2023-01-22T19:06:23.228Z,47.83
2023-01-22T19:08:58.507Z,48.03
2023-01-22T19:11:26.673Z,48.42
2023-01-22T19:13:54.675Z,48.40
2023-01-22T19:16:24.342Z,48.52
2023-01-22T19:18:55.027Z,48.76
2023-01-22T19:21:23.088Z,48.69
2023-01-22T19:23:51.750Z,48.75
2023-01-22T19:26:22.149Z,48.83
2023-01-22T19:28:50.097Z,48.77
2023-01-22T19:31:18.769Z,48.82
2023-01-22T19:33:48.246Z,48.75
2023-01-22T19:36:16.398Z,48.52
2023-01-22T19:38:44.403Z,48.83
2023-01-22T19:41:16.051Z,48.76
2023-01-22T19:43:43.944Z,48.60
2023-01-22T19:46:13.220Z,48.71
2023-01-22T19:48:41.310Z,48.94
2023-01-22T19:51:11.621Z,49.04
2023-01-22T19:53:39.963Z,48.91
2023-01-22T19:56:17.747Z,48.92
2023-01-22T19:58:46.640Z,48.90
2023-01-22T20:01:14.698Z,48.80
2023-01-22T20:03:42.644Z,48.77
2023-01-22T20:06:12.703Z,48.71
2023-01-22T20:08:40.600Z,48.72
2023-01-22T20:11:09.266Z,48.68
2023-01-22T20:13:37.503Z,48.38
2023-01-22T20:16:06.679Z,48.55
2023-01-22T20:18:34.687Z,48.44
2023-01-22T20:21:03.954Z,48.36
2023-01-22T20:23:33.249Z,48.32
2023-01-22T20:26:02.836Z,48.31
2023-01-22T20:28:30.725Z,48.20
2023-01-22T20:30:59.470Z,48.22
2023-01-22T20:33:27.611Z,48.22
2023-01-22T20:35:56.901Z,48.41
2023-01-22T20:38:24.945Z,48.38
2023-01-22T20:40:54.271Z,48.28
2023-01-22T20:43:22.167Z,48.36
2023-01-22T20:45:58.997Z,48.30
2023-01-22T20:48:26.955Z,48.40
2023-01-22T20:50:54.876Z,48.50
2023-01-22T20:53:22.919Z,48.34
2023-01-22T20:56:00.536Z,48.52
2023-01-22T20:58:28.524Z,48.46
2023-01-22T21:00:56.654Z,48.42
2023-01-22T21:03:25.265Z,48.54
2023-01-22T21:05:53.158Z,48.67
2023-01-22T21:08:21.042Z,48.59
2023-01-22T21:10:56.824Z,48.60
2023-01-22T21:13:26.301Z,48.81
2023-01-22T21:15:54.419Z,48.79
2023-01-22T21:18:22.689Z,48.95
2023-01-22T21:20:54.071Z,48.91
2023-01-22T21:23:21.966Z,48.87
2023-01-22T21:25:49.870Z,49.10
2023-01-22T21:28:17.846Z,49.14
2023-01-22T21:30:47.188Z,49.10
2023-01-22T21:33:16.491Z,49.25
2023-01-22T21:35:49.497Z,49.25
2023-01-22T21:38:17.347Z,49.17
2023-01-22T21:40:45.248Z,49.16
2023-01-22T21:43:31.670Z,49.23
2023-01-22T21:46:18.774Z,49.19
2023-01-22T21:48:46.750Z,49.23
2023-01-22T21:51:14.747Z,49.20
2023-01-22T21:53:42.682Z,49.27
2023-01-22T21:56:10.626Z,49.26
2023-01-22T21:58:42.334Z,49.20
2023-01-22T22:01:12.335Z,49.17
2023-01-22T22:03:40.304Z,49.09
2023-01-22T22:06:08.766Z,49.29
2023-01-22T22:08:37.572Z,49.31
2023-01-22T22:11:05.701Z,49.30
2023-01-22T22:13:35.085Z,49.36
2023-01-22T22:16:03.323Z,49.26
2023-01-22T22:18:32.575Z,49.21
2023-01-22T22:21:00.958Z,49.47
2023-01-22T22:23:29.029Z,49.41
2023-01-22T22:25:56.865Z,49.44
2023-01-22T22:28:24.864Z,49.34
2023-01-22T22:30:52.814Z,49.52
2023-01-22T22:33:20.762Z,49.59
2023-01-22T22:35:50.046Z,49.49
2023-01-22T22:38:18.001Z,49.49
2023-01-22T22:40:45.923Z,49.36
2023-01-22T22:43:15.755Z,49.62
2023-01-22T22:45:43.717Z,49.38
2023-01-22T22:48:11.574Z,49.63
2023-01-22T22:50:41.052Z,49.53
2023-01-22T22:53:10.293Z,49.42
2023-01-22T22:55:41.285Z,49.42
2023-01-22T22:58:09.576Z,49.60
2023-01-22T23:00:38.181Z,49.76
2023-01-22T23:03:06.199Z,49.71
2023-01-22T23:05:37.645Z,49.71
2023-01-22T23:08:05.861Z,49.76
2023-01-22T23:10:35.196Z,50.03
2023-01-22T23:13:03.571Z,50.19
2023-01-22T23:15:31.829Z,50.15
2023-01-22T23:17:59.997Z,50.25
2023-01-22T23:20:27.890Z,50.32
2023-01-22T23:22:56.150Z,50.69
2023-01-22T23:25:24.048Z,50.94
2023-01-22T23:27:53.325Z,50.94
2023-01-22T23:30:21.485Z,51.17
2023-01-22T23:32:49.563Z,51.21
2023-01-22T23:35:17.495Z,51.18
2023-01-22T23:37:45.381Z,51.09
2023-01-22T23:40:13.989Z,51.18
2023-01-22T23:42:41.840Z,51.32
2023-01-22T23:45:12.401Z,51.36
2023-01-22T23:47:40.290Z,51.65
2023-01-22T23:50:10.269Z,51.48
2023-01-22T23:52:38.717Z,51.35
2023-01-22T23:55:07.420Z,51.30
2023-01-22T23:57:35.281Z,51.36
